Time;durP1;ratioP1;P1;durP2;ratioP2;P2;SDS_P1;SDS_P2;PMS_P1;PMS_P2;Temp;Humidity;BMP_temperature;BMP_pressure;BME280_temperature;BME280_humidity;BME280_pressure;Samples;Min_cycle;Max_cycle;Signal;HPM_P1;HPM_P2
2021/04/19 00:00:37;;;;;;;69.75;39.10;;;;;;;9.49;67.40;100401.02;147800;1147;104466;-72
2021/04/19 00:03:40;;;;;;;40.63;23.25;;;;;;;9.49;67.66;100383.23;147742;1147;104476;-74
2021/04/19 00:06:43;;;;;;;42.78;23.50;;;;;;;9.53;67.52;100367.81;147766;1147;104566;-76
2021/04/19 00:09:47;;;;;;;44.25;23.52;;;;;;;9.56;67.82;100354.19;147768;1147;104452;-76
2021/04/19 00:12:51;;;;;;;38.55;23.92;;;;;;;9.56;68.20;100352.35;147756;1147;104474;-74
2021/04/19 00:15:54;;;;;;;39.55;24.02;;;;;;;9.58;68.56;100352.22;147682;1147;104992;-76
2021/04/19 00:18:57;;;;;;;41.73;24.75;;;;;;;9.31;69.81;100361.80;147768;1147;104581;-76
2021/04/19 00:22:01;;;;;;;40.73;25.15;;;;;;;9.15;69.76;100358.89;147743;1147;104551;-76
2021/04/19 00:25:06;;;;;;;40.12;24.63;;;;;;;8.99;70.32;100339.00;147623;1147;104589;-75
2021/04/19 00:28:09;;;;;;;35.48;21.23;;;;;;;8.87;71.18;100318.81;147790;1147;104577;-76
2021/04/19 00:31:13;;;;;;;32.00;19.00;;;;;;;8.84;70.70;100324.44;147510;1147;104553;-75
2021/04/19 00:34:16;;;;;;;33.63;21.82;;;;;;;8.80;71.80;100323.88;147358;1147;104510;-76
2021/04/19 00:37:21;;;;;;;34.00;21.62;;;;;;;8.77;72.23;100323.31;147403;1147;104593;-77
2021/04/19 00:40:24;;;;;;;33.63;21.52;;;;;;;8.69;72.15;100312.53;147689;1147;104553;-77
2021/04/19 00:43:29;;;;;;;34.53;22.25;;;;;;;8.60;71.67;100298.23;147768;1147;104908;-76
2021/04/19 00:46:33;;;;;;;31.57;18.98;;;;;;;8.56;73.03;100307.48;147712;1147;104518;-77
2021/04/19 00:49:36;;;;;;;30.27;17.65;;;;;;;8.58;71.91;100316.16;147749;1147;104486;-77
2021/04/19 00:52:40;;;;;;;31.23;19.20;;;;;;;8.65;72.75;100328.76;147764;1148;104640;-76
2021/04/19 00:55:43;;;;;;;28.10;18.00;;;;;;;8.75;71.36;100314.63;147734;1147;104555;-76
2021/04/19 00:58:47;;;;;;;28.45;18.40;;;;;;;8.89;71.63;100300.05;147601;1148;104454;-76
2021/04/19 01:01:51;;;;;;;31.47;19.87;;;;;;;9.01;71.24;100277.66;147670;1147;104460;-75
2021/04/19 01:04:54;;;;;;;24.02;15.43;;;;;;;9.10;70.91;100283.92;147793;1147;104459;-77
2021/04/19 01:07:59;;;;;;;27.42;16.27;;;;;;;9.21;70.72;100313.89;147819;1147;104637;-78
2021/04/19 01:11:02;;;;;;;27.35;17.77;;;;;;;9.23;71.45;100297.77;147511;1148;104577;-81
2021/04/19 01:14:07;;;;;;;29.05;18.80;;;;;;;9.16;71.51;100310.83;147029;1148;104547;-78
2021/04/19 01:17:11;;;;;;;28.92;19.57;;;;;;;9.16;71.25;100315.30;147662;1147;104553;-78
2021/04/19 01:20:18;;;;;;;26.15;18.05;;;;;;;9.17;70.80;100331.13;147726;1147;104506;-77
2021/04/19 01:23:22;;;;;;;32.53;20.10;;;;;;;9.21;71.00;100343.17;147438;1148;104623;-77
2021/04/19 01:26:26;;;;;;;24.03;15.70;;;;;;;9.27;71.17;100340.94;147794;1148;104460;-77
2021/04/19 01:29:33;;;;;;;25.47;15.03;;;;;;;9.33;70.88;100349.17;147728;1145;104455;-77
2021/04/19 01:32:37;;;;;;;26.00;16.53;;;;;;;9.40;70.93;100347.63;147731;1147;104855;-78
2021/04/19 01:35:42;;;;;;;23.60;16.27;;;;;;;9.46;70.88;100351.55;147786;1148;104527;-81
2021/04/19 01:38:46;;;;;;;23.52;16.62;;;;;;;9.48;70.94;100351.41;147354;1147;104630;-80
2021/04/19 01:41:50;;;;;;;25.37;17.30;;;;;;;9.47;71.08;100360.37;147762;1147;104570;-76
2021/04/19 01:44:53;;;;;;;24.95;16.45;;;;;;;9.50;70.82;100349.44;147696;1147;104555;-74
2021/04/19 01:47:58;;;;;;;25.68;17.20;;;;;;;9.50;70.52;100358.27;147690;1147;104569;-74
2021/04/19 01:51:01;;;;;;;25.88;16.05;;;;;;;9.48;70.90;100359.40;147798;1147;104551;-75
2021/04/19 01:54:06;;;;;;;26.27;16.37;;;;;;;9.48;70.91;100348.74;147558;1147;104857;-72
2021/04/19 01:57:10;;;;;;;22.93;15.97;;;;;;;9.46;70.62;100342.73;147036;1147;104480;-75
2021/04/19 02:00:18;;;;;;;25.90;18.50;;;;;;;9.49;70.64;100334.43;147712;1146;104547;-74
2021/04/19 02:03:40;;;;;;;35.40;22.22;;;;;;;9.48;70.48;100324.77;147724;1147;104546;-74
2021/04/19 02:06:59;;;;;;;30.65;20.40;;;;;;;9.28;70.47;100322.16;147797;1147;104493;-74
2021/04/19 02:10:10;;;;;;;29.35;19.82;;;;;;;9.14;70.73;100317.27;147758;1147;104620;-77
2021/04/19 02:13:17;;;;;;;27.23;18.57;;;;;;;9.01;70.92;100321.06;147353;1148;104542;-76
2021/04/19 02:16:26;;;;;;;24.15;15.93;;;;;;;9.00;70.65;100323.87;147393;1147;104540;-79
2021/04/19 02:19:39;;;;;;;25.30;16.30;;;;;;;9.00;70.81;100318.55;147717;1147;104444;-79
2021/04/19 02:22:49;;;;;;;30.48;20.25;;;;;;;8.99;71.04;100317.71;147787;1147;104586;-80
2021/04/19 02:25:58;;;;;;;31.12;20.32;;;;;;;8.94;71.22;100305.81;147758;1147;104537;-78
2021/04/19 02:29:07;;;;;;;29.37;19.60;;;;;;;8.78;71.26;100309.05;147378;1147;104527;-73
2021/04/19 02:32:15;;;;;;;28.92;19.57;;;;;;;8.63;71.20;100312.10;147761;1148;104946;-74
2021/04/19 02:35:24;;;;;;;31.00;20.90;;;;;;;8.52;71.87;100314.89;147193;1147;104568;-75
2021/04/19 02:38:44;;;;;;;25.30;18.05;;;;;;;8.45;71.69;100303.14;147384;1147;104538;-76
2021/04/19 02:41:52;;;;;;;25.43;15.53;;;;;;;8.43;71.23;100302.45;147750;1147;104549;-76
2021/04/19 02:44:57;;;;;;;21.87;14.00;;;;;;;8.43;70.85;100313.91;147381;1148;104587;-74
2021/04/19 02:48:16;;;;;;;23.47;15.78;;;;;;;8.44;70.78;100310.26;147554;1147;104482;-74
2021/04/19 02:51:29;;;;;;;25.03;16.57;;;;;;;8.43;71.29;100313.08;147685;1147;104479;-72
2021/04/19 02:54:35;;;;;;;23.02;14.95;;;;;;;8.42;71.36;100319.36;147713;1147;104453;-73
2021/04/19 02:57:44;;;;;;;23.18;15.95;;;;;;;8.37;70.37;100326.87;147726;1148;104467;-73
2021/04/19 03:00:50;;;;;;;21.52;14.53;;;;;;;8.29;70.53;100324.89;147792;1147;104591;-74
2021/04/19 03:03:56;;;;;;;24.85;16.25;;;;;;;8.20;70.82;100323.91;147721;1147;104473;-73
2021/04/19 03:07:02;;;;;;;20.43;14.70;;;;;;;8.07;70.56;100323.31;147184;1148;104976;-71
2021/04/19 03:10:11;;;;;;;22.32;15.98;;;;;;;8.00;70.45;100332.79;148142;1145;104545;-72
2021/04/19 03:13:18;;;;;;;19.75;12.82;;;;;;;7.89;70.73;100332.88;147470;1147;104635;-72
2021/04/19 03:16:25;;;;;;;22.13;13.72;;;;;;;7.86;70.79;100334.84;147689;1147;104566;-73
2021/04/19 03:19:36;;;;;;;21.00;13.83;;;;;;;7.90;69.86;100334.58;147591;1148;104508;-72
2021/04/19 03:22:44;;;;;;;26.75;15.98;;;;;;;7.92;70.93;100335.28;147349;1147;105453;-72
2021/04/19 03:25:48;;;;;;;27.73;17.30;;;;;;;7.96;70.90;100339.35;148801;1147;104467;-73
2021/04/19 03:28:56;;;;;;;28.90;17.53;;;;;;;7.96;70.99;100336.70;147671;1147;104633;-73
2021/04/19 03:32:10;;;;;;;35.43;20.43;;;;;;;7.92;70.52;100341.43;147778;1146;104608;-72
2021/04/19 03:35:22;;;;;;;37.13;21.43;;;;;;;7.88;70.79;100337.36;147282;1147;105026;-75
2021/04/19 03:38:28;;;;;;;36.77;21.33;;;;;;;7.85;70.88;100338.48;147361;1147;104473;-72
2021/04/19 03:41:36;;;;;;;39.20;22.73;;;;;;;7.83;70.58;100350.20;146907;1148;104505;-72
2021/04/19 03:44:42;;;;;;;35.63;22.27;;;;;;;7.81;71.02;100352.15;147256;1147;104639;-73
2021/04/19 03:47:50;;;;;;;26.62;17.27;;;;;;;7.74;69.99;100354.50;147422;1147;104600;-72
2021/04/19 03:51:07;;;;;;;22.60;15.80;;;;;;;7.76;70.24;100351.72;147559;1147;104466;-72
2021/04/19 03:54:14;;;;;;;24.70;17.35;;;;;;;7.81;70.71;100360.11;147443;1147;104901;-72
2021/04/19 03:57:22;;;;;;;25.57;17.17;;;;;;;7.83;70.48;100361.69;147683;1147;104507;-74
2021/04/19 04:00:27;;;;;;;23.47;16.80;;;;;;;7.81;69.95;100360.98;147382;1148;104805;-72
2021/04/19 04:03:42;;;;;;;25.65;17.40;;;;;;;7.74;70.36;100367.78;147779;1147;104494;-72
2021/04/19 04:07:03;;;;;;;24.30;16.32;;;;;;;7.74;70.68;100362.48;147774;1147;104572;-72
2021/04/19 04:10:12;;;;;;;26.03;17.20;;;;;;;7.81;70.01;100368.95;147229;1147;104497;-72
2021/04/19 04:13:16;;;;;;;26.10;17.48;;;;;;;7.89;71.14;100364.77;147388;1147;104463;-74
2021/04/19 04:16:19;;;;;;;25.07;15.97;;;;;;;7.95;70.58;100364.23;147291;1147;104662;-74
2021/04/19 04:19:43;;;;;;;23.30;15.00;;;;;;;8.05;70.81;100367.78;147374;1147;104551;-74
2021/04/19 04:22:48;;;;;;;25.60;16.65;;;;;;;8.15;70.85;100355.36;147615;1147;104463;-73
2021/04/19 04:25:52;;;;;;;28.53;17.33;;;;;;;8.28;70.11;100359.61;147441;1147;104585;-72
2021/04/19 04:29:01;;;;;;;31.77;19.90;;;;;;;8.41;70.22;100360.17;147525;1147;104476;-71
2021/04/19 04:32:09;;;;;;;30.93;20.10;;;;;;;8.52;70.51;100359.27;147436;1147;104572;-70
2021/04/19 04:35:16;;;;;;;43.25;24.20;;;;;;;8.59;70.59;100353.26;147119;1145;104633;-71
2021/04/19 04:38:21;;;;;;;42.60;24.52;;;;;;;8.68;70.46;100356.06;147681;1147;104543;-70
2021/04/19 04:41:27;;;;;;;44.30;24.20;;;;;;;8.69;70.82;100349.78;147621;1148;104537;-70
2021/04/19 04:44:36;;;;;;;42.50;23.10;;;;;;;8.59;71.89;100352.42;147677;1147;104458;-70
2021/04/19 04:47:45;;;;;;;35.25;19.60;;;;;;;8.69;71.95;100342.63;147633;1148;104718;-72
2021/04/19 04:50:52;;;;;;;38.42;20.72;;;;;;;8.86;72.05;100348.25;147775;1148;104559;-70
2021/04/19 04:53:59;;;;;;;33.48;21.23;;;;;;;9.05;71.65;100350.91;147730;1147;104965;-70
2021/04/19 04:57:05;;;;;;;35.55;21.48;;;;;;;9.17;71.28;100354.26;147558;1147;104472;-70
2021/04/19 05:00:12;;;;;;;36.50;23.40;;;;;;;9.30;71.51;100352.14;147257;1148;104462;-70
2021/04/19 05:03:17;;;;;;;34.10;20.55;;;;;;;9.46;71.65;100353.38;147751;1147;104627;-70
2021/04/19 05:06:21;;;;;;;35.60;20.60;;;;;;;9.60;71.66;100352.91;147635;1147;104879;-73
2021/04/19 05:09:25;;;;;;;31.48;20.00;;;;;;;9.73;71.37;100358.77;147481;1147;104540;-70
2021/04/19 05:12:28;;;;;;;29.50;19.20;;;;;;;9.85;70.71;100353.26;147454;1147;104539;-72
2021/04/19 05:15:41;;;;;;;22.67;15.23;;;;;;;9.95;70.97;100352.25;147751;1147;104550;-70
2021/04/19 05:18:45;;;;;;;25.55;18.77;;;;;;;10.08;71.32;100348.39;147672;1147;104492;-71
2021/04/19 05:21:48;;;;;;;27.33;19.27;;;;;;;10.07;71.08;100344.89;147397;1148;104577;-71
2021/04/19 05:24:52;;;;;;;27.65;18.98;;;;;;;10.11;71.52;100350.78;147748;1148;104497;-70
2021/04/19 05:27:56;;;;;;;27.02;17.32;;;;;;;10.04;71.51;100350.52;147594;1148;104548;-70
2021/04/19 05:31:00;;;;;;;22.58;16.15;;;;;;;9.94;71.33;100349.72;147549;1147;104466;-71
2021/04/19 05:34:04;;;;;;;23.73;17.60;;;;;;;9.82;71.39;100355.23;147624;1147;104594;-70
2021/04/19 05:37:09;;;;;;;21.12;16.02;;;;;;;9.83;71.19;100362.26;147656;1148;104537;-70
2021/04/19 05:40:15;;;;;;;19.52;14.20;;;;;;;9.91;71.56;100366.86;147057;1147;104477;-71
2021/04/19 05:43:19;;;;;;;18.90;13.17;;;;;;;10.09;71.51;100361.58;147330;1148;104462;-70
2021/04/19 05:46:22;;;;;;;23.22;16.70;;;;;;;10.34;71.31;100361.92;147601;1147;104719;-70
2021/04/19 05:49:25;;;;;;;24.87;18.42;;;;;;;10.37;71.57;100362.47;147287;1147;104585;-70
2021/04/19 05:52:29;;;;;;;25.85;19.15;;;;;;;10.30;70.90;100356.04;147649;1147;104467;-71
2021/04/19 05:55:34;;;;;;;32.40;22.85;;;;;;;10.36;70.91;100355.44;147358;1148;104515;-73
2021/04/19 05:58:46;;;;;;;38.25;26.00;;;;;;;10.47;71.08;100362.41;147651;1147;104565;-70
2021/04/19 06:01:55;;;;;;;35.08;25.15;;;;;;;10.68;71.89;100348.79;147728;1148;104967;-70
2021/04/19 06:05:06;;;;;;;31.02;21.45;;;;;;;11.04;71.02;100355.95;147698;1147;104655;-71
2021/04/19 06:08:14;;;;;;;25.12;17.73;;;;;;;11.27;71.76;100359.80;147777;1148;104528;-73
2021/04/19 06:11:41;;;;;;;26.17;19.30;;;;;;;11.48;71.02;100358.63;147766;1147;104460;-71
2021/04/19 06:15:00;;;;;;;35.52;22.25;;;;;;;11.61;71.25;100360.89;147749;1147;104467;-70
2021/04/19 06:18:04;;;;;;;37.42;24.00;;;;;;;11.76;71.13;100357.48;147819;1147;104480;-70
2021/04/19 06:21:08;;;;;;;30.65;20.55;;;;;;;11.98;70.80;100363.30;147613;1147;104522;-71
2021/04/19 06:24:12;;;;;;;28.38;20.68;;;;;;;12.17;71.10;100356.88;147610;1147;104449;-71
2021/04/19 06:27:20;;;;;;;22.07;16.95;;;;;;;12.23;70.28;100360.74;147484;1147;104505;-72
2021/04/19 06:30:27;;;;;;;28.12;19.37;;;;;;;12.23;70.66;100366.09;147739;1147;104470;-70
2021/04/19 06:33:30;;;;;;;27.77;20.15;;;;;;;12.16;70.47;100361.39;147349;1148;104473;-72
2021/04/19 06:36:36;;;;;;;25.57;19.17;;;;;;;12.08;70.57;100374.70;147719;1148;104513;-70
2021/04/19 06:39:39;;;;;;;23.80;16.15;;;;;;;11.96;70.58;100371.47;147753;1147;104463;-70
2021/04/19 06:42:43;;;;;;;22.27;17.23;;;;;;;11.93;70.91;100369.14;147754;1147;104601;-72
2021/04/19 06:45:46;;;;;;;22.73;17.50;;;;;;;11.95;70.78;100366.28;147682;1147;104476;-69
2021/04/19 06:48:51;;;;;;;22.98;17.77;;;;;;;11.92;70.46;100369.29;147522;1148;104503;-72
2021/04/19 06:51:56;;;;;;;26.20;18.75;;;;;;;11.84;70.42;100366.55;147661;1148;105127;-72
2021/04/19 06:55:00;;;;;;;27.62;19.10;;;;;;;11.75;70.66;100369.16;147800;1148;104535;-71
2021/04/19 06:58:05;;;;;;;26.02;18.02;;;;;;;11.70;70.98;100366.13;147368;1147;104608;-71
2021/04/19 07:01:10;;;;;;;24.30;18.50;;;;;;;11.67;70.02;100363.77;147183;1148;104511;-71
2021/04/19 07:04:18;;;;;;;25.15;18.48;;;;;;;11.57;70.08;100363.88;147328;1147;104539;-70
2021/04/19 07:07:26;;;;;;;25.17;19.47;;;;;;;11.45;70.87;100365.13;147800;1147;104924;-71
2021/04/19 07:10:32;;;;;;;27.98;19.80;;;;;;;11.47;70.50;100348.92;147733;1147;105004;-72
2021/04/19 07:13:39;;;;;;;26.90;18.98;;;;;;;11.51;70.58;100345.80;147766;1148;104464;-71
2021/04/19 07:16:42;;;;;;;29.35;20.08;;;;;;;11.51;71.35;100344.94;147737;1147;104530;-72
2021/04/19 07:19:46;;;;;;;23.60;19.02;;;;;;;11.53;71.30;100343.80;147117;1147;104465;-71
2021/04/19 07:22:50;;;;;;;24.03;18.70;;;;;;;11.64;70.61;100345.36;147751;1147;104509;-71
2021/04/19 07:25:54;;;;;;;24.87;18.10;;;;;;;11.69;70.94;100343.06;147729;1147;104610;-70
2021/04/19 07:28:57;;;;;;;25.57;18.85;;;;;;;11.61;70.92;100334.17;147652;1147;104449;-70
2021/04/19 07:32:00;;;;;;;22.13;16.47;;;;;;;11.59;70.90;100339.66;147584;1147;104543;-71
2021/04/19 07:35:07;;;;;;;21.60;16.15;;;;;;;11.76;70.99;100337.94;147657;1147;104553;-72
2021/04/19 07:38:10;;;;;;;18.00;14.35;;;;;;;11.92;70.96;100337.20;147678;1147;104551;-71
2021/04/19 07:41:14;;;;;;;21.25;16.57;;;;;;;12.12;70.86;100327.08;147304;1146;104513;-70
2021/04/19 07:44:38;;;;;;;18.77;14.55;;;;;;;12.22;70.96;100332.30;147611;1147;104864;-72
2021/04/19 07:47:41;;;;;;;19.30;14.83;;;;;;;12.36;70.79;100331.69;147756;1147;104544;-72
2021/04/19 07:50:45;;;;;;;17.52;14.55;;;;;;;12.37;70.64;100330.67;147722;1147;104541;-70
2021/04/19 07:53:48;;;;;;;18.67;14.83;;;;;;;12.49;70.36;100326.71;147555;1147;104624;-71
2021/04/19 07:57:08;;;;;;;18.37;13.77;;;;;;;12.46;70.52;100327.03;147741;1147;104543;-72
2021/04/19 08:00:24;;;;;;;16.93;13.35;;;;;;;12.55;70.66;100323.38;147668;1147;104556;-71
2021/04/19 08:03:38;;;;;;;18.02;13.85;;;;;;;12.76;70.88;100322.08;147580;1147;104458;-71
2021/04/19 08:06:41;;;;;;;15.72;13.15;;;;;;;12.84;70.26;100316.72;147474;1147;104543;-71
2021/04/19 08:09:54;;;;;;;15.88;13.00;;;;;;;12.90;70.50;100315.22;147673;1146;104550;-71
2021/04/19 08:13:12;;;;;;;15.55;12.33;;;;;;;13.00;70.51;100320.41;147750;1148;104598;-72
2021/04/19 08:16:17;;;;;;;15.35;12.13;;;;;;;13.14;70.38;100320.58;147534;1147;104459;-70
2021/04/19 08:19:34;;;;;;;14.38;12.25;;;;;;;13.23;70.17;100321.40;147707;1148;104559;-71
2021/04/19 08:22:38;;;;;;;15.03;12.68;;;;;;;13.26;70.37;100321.07;147746;1147;104538;-72
2021/04/19 08:25:44;;;;;;;12.20;10.10;;;;;;;13.35;69.40;100320.06;147766;1147;104636;-70
2021/04/19 08:28:49;;;;;;;12.50;9.38;;;;;;;13.44;69.12;100315.55;147821;1147;104445;-71
2021/04/19 08:31:53;;;;;;;12.55;10.28;;;;;;;13.59;70.08;100321.05;147763;1147;104601;-70
2021/04/19 08:34:57;;;;;;;12.35;9.45;;;;;;;13.74;68.87;100318.48;147716;1148;104538;-72
2021/04/19 08:38:03;;;;;;;13.50;10.68;;;;;;;13.81;69.22;100324.00;147662;1147;104910;-73
2021/04/19 08:41:07;;;;;;;14.95;11.73;;;;;;;13.90;69.32;100315.75;147602;1147;105323;-72
2021/04/19 08:44:11;;;;;;;15.83;12.07;;;;;;;14.00;68.79;100310.19;147694;1148;104549;-71
2021/04/19 08:47:18;;;;;;;14.58;12.23;;;;;;;14.07;68.70;100307.66;147741;1147;104467;-71
2021/04/19 08:50:25;;;;;;;16.40;11.97;;;;;;;14.12;68.93;100316.00;147769;1147;104468;-71
2021/04/19 08:53:29;;;;;;;16.57;11.35;;;;;;;14.14;68.97;100312.14;147428;1147;104466;-69
2021/04/19 08:56:33;;;;;;;15.38;12.15;;;;;;;14.24;68.76;100308.39;147664;1148;104613;-71
2021/04/19 08:59:37;;;;;;;16.10;12.33;;;;;;;14.28;67.74;100313.25;147811;1147;104469;-71
2021/04/19 09:02:41;;;;;;;14.60;12.07;;;;;;;14.34;68.45;100299.12;147725;1147;104559;-72
2021/04/19 09:05:44;;;;;;;14.40;10.55;;;;;;;14.37;68.00;100302.45;147762;1147;104509;-71
2021/04/19 09:08:48;;;;;;;11.57;8.75;;;;;;;14.37;67.52;100303.28;147725;1147;104458;-71
2021/04/19 09:11:51;;;;;;;13.93;9.50;;;;;;;14.36;67.33;100306.14;147764;1147;104547;-71
2021/04/19 09:15:14;;;;;;;13.05;9.78;;;;;;;14.43;67.55;100302.57;147769;1147;104546;-73
2021/04/19 09:18:20;;;;;;;14.30;10.43;;;;;;;14.52;67.21;100296.14;147753;1147;104470;-70
2021/04/19 09:21:44;;;;;;;13.22;10.58;;;;;;;14.70;67.15;100297.73;147789;1145;104473;-71
2021/04/19 09:25:00;;;;;;;12.40;10.08;;;;;;;14.82;66.62;100290.95;147732;1147;104476;-72
2021/04/19 09:28:04;;;;;;;13.10;9.60;;;;;;;14.91;66.75;100289.01;147597;1146;104653;-71
2021/04/19 09:31:08;;;;;;;14.83;11.30;;;;;;;15.08;66.36;100285.16;147525;1147;104569;-71
2021/04/19 09:34:15;;;;;;;14.00;10.75;;;;;;;15.17;66.69;100283.25;147723;1147;104450;-71
2021/04/19 09:37:20;;;;;;;15.18;10.88;;;;;;;15.21;65.89;100287.23;147722;1147;104815;-72
2021/04/19 09:40:24;;;;;;;15.07;11.17;;;;;;;15.22;66.11;100283.55;147749;1148;104455;-71
2021/04/19 09:43:35;;;;;;;15.40;11.35;;;;;;;15.21;65.66;100284.55;147519;1147;104727;-71
2021/04/19 09:46:52;;;;;;;15.23;10.53;;;;;;;15.24;65.44;100284.20;147746;1147;104470;-72
2021/04/19 09:49:55;;;;;;;13.25;10.65;;;;;;;15.30;64.70;100278.08;147708;1147;104546;-71
2021/04/19 09:52:58;;;;;;;13.32;10.43;;;;;;;15.41;63.98;100274.09;147717;1147;104522;-71
2021/04/19 09:56:02;;;;;;;13.98;11.12;;;;;;;15.49;63.93;100273.17;147783;1148;104458;-71
2021/04/19 09:59:06;;;;;;;12.30;10.40;;;;;;;15.47;64.87;100272.52;147724;1147;104633;-71
2021/04/19 10:02:13;;;;;;;13.23;10.00;;;;;;;15.58;64.23;100268.55;147783;1147;104583;-72
2021/04/19 10:05:17;;;;;;;10.93;9.58;;;;;;;15.66;63.61;100274.66;147805;1147;104562;-71
2021/04/19 10:08:22;;;;;;;13.20;9.43;;;;;;;15.73;62.42;100271.25;147319;1147;104556;-71
2021/04/19 10:11:28;;;;;;;12.80;9.20;;;;;;;15.73;61.66;100271.25;147755;1147;104542;-72
2021/04/19 10:14:37;;;;;;;11.10;8.85;;;;;;;15.84;61.14;100268.09;147315;1147;104525;-71
2021/04/19 10:17:40;;;;;;;10.60;9.45;;;;;;;16.03;60.00;100270.22;147551;1147;104523;-71
2021/04/19 10:20:43;;;;;;;10.40;8.98;;;;;;;16.23;60.99;100259.67;147169;1147;104937;-71
2021/04/19 10:23:46;;;;;;;11.70;9.10;;;;;;;16.41;60.46;100270.01;147335;1147;104448;-71
2021/04/19 10:26:50;;;;;;;13.77;8.80;;;;;;;16.54;59.13;100250.47;147692;1147;104476;-72
2021/04/19 10:29:54;;;;;;;11.70;8.70;;;;;;;16.68;59.39;100252.25;147749;1147;104528;-72
2021/04/19 10:32:57;;;;;;;9.73;8.15;;;;;;;16.71;59.40;100245.66;147750;1147;104460;-72
2021/04/19 10:36:09;;;;;;;10.48;8.75;;;;;;;16.81;59.26;100243.45;147435;1147;104858;-72
2021/04/19 10:39:16;;;;;;;9.90;8.57;;;;;;;16.99;58.59;100239.48;147734;1148;104535;-72
2021/04/19 10:42:27;;;;;;;9.68;7.92;;;;;;;17.14;58.60;100247.48;147462;1147;104489;-72
2021/04/19 10:45:29;;;;;;;;;;;;;;;17.20;55.28;100242.12;147422;1147;104479;-72
2021/04/19 10:48:32;;;;;;;10.07;7.47;;;;;;;17.15;56.42;100254.53;147757;1147;105026;-72
2021/04/19 10:51:37;;;;;;;10.10;7.45;;;;;;;17.15;57.75;100249.13;147718;1147;104928;-72
2021/04/19 10:54:42;;;;;;;10.48;7.42;;;;;;;17.26;55.70;100241.36;147769;1147;104474;-71
2021/04/19 10:57:46;;;;;;;9.05;7.60;;;;;;;17.32;55.33;100238.88;147775;1147;104463;-71
2021/04/19 11:00:49;;;;;;;8.53;6.40;;;;;;;17.39;57.61;100237.07;147832;1147;104519;-72
2021/04/19 11:03:53;;;;;;;8.38;7.35;;;;;;;17.49;55.18;100237.53;147750;1147;104550;-72
2021/04/19 11:07:16;;;;;;;8.37;6.30;;;;;;;17.49;55.56;100242.94;147660;1147;104500;-71
2021/04/19 11:10:25;;;;;;;9.88;6.28;;;;;;;17.37;54.75;100239.13;147719;1147;104532;-72
2021/04/19 11:13:28;;;;;;;8.63;5.97;;;;;;;17.38;55.09;100238.09;147598;1147;104447;-72
2021/04/19 11:16:31;;;;;;;7.77;5.80;;;;;;;17.48;51.78;100226.97;147746;1147;104956;-72
2021/04/19 11:19:37;;;;;;;9.50;6.28;;;;;;;17.63;54.37;100233.89;147718;1147;104454;-72
2021/04/19 11:22:41;;;;;;;6.85;5.85;;;;;;;17.77;51.68;100225.86;147427;1147;104546;-71
2021/04/19 11:25:48;;;;;;;9.90;5.70;;;;;;;17.87;48.74;100231.74;147708;1147;104806;-72
2021/04/19 11:28:51;;;;;;;9.43;6.20;;;;;;;17.99;51.71;100226.59;149344;1147;104451;-74
2021/04/19 11:31:57;;;;;;;8.78;6.47;;;;;;;18.11;52.61;100226.83;147768;1148;104692;-72
2021/04/19 11:35:01;;;;;;;8.93;6.28;;;;;;;18.10;52.34;100211.68;147772;1147;104462;-72
2021/04/19 11:38:06;;;;;;;7.83;6.17;;;;;;;18.05;51.61;100226.63;147623;1147;104489;-71
2021/04/19 11:41:11;;;;;;;7.37;5.83;;;;;;;18.00;50.51;100225.56;147709;1147;104467;-72
2021/04/19 11:44:15;;;;;;;8.10;6.03;;;;;;;17.96;50.76;100225.14;147815;1147;104477;-72
2021/04/19 11:47:19;;;;;;;12.40;5.78;;;;;;;18.04;51.52;100232.22;147730;1147;104601;-72
2021/04/19 11:50:25;;;;;;;7.15;6.10;;;;;;;18.14;50.99;100221.03;147561;1147;104546;-72
2021/04/19 11:53:31;;;;;;;7.47;6.12;;;;;;;18.14;47.56;100219.16;147526;1147;104493;-72
2021/04/19 11:56:34;;;;;;;8.58;6.00;;;;;;;18.13;49.86;100205.86;147634;1147;104461;-73
2021/04/19 11:59:38;;;;;;;6.30;5.70;;;;;;;18.10;47.96;100217.08;147567;1147;104473;-72
2021/04/19 12:02:42;;;;;;;7.75;5.37;;;;;;;18.12;48.06;100223.11;147640;1148;104617;-72
2021/04/19 12:05:45;;;;;;;8.38;5.65;;;;;;;18.13;49.73;100222.91;147733;1147;104526;-72
2021/04/19 12:08:49;;;;;;;7.42;5.45;;;;;;;18.18;48.72;100211.48;147720;1148;104578;-72
2021/04/19 12:11:52;;;;;;;6.75;5.60;;;;;;;18.17;44.93;100216.06;147603;1147;104579;-72
2021/04/19 12:14:56;;;;;;;7.45;5.30;;;;;;;18.21;47.08;100211.09;147477;1148;104934;-71
2021/04/19 12:17:59;;;;;;;7.65;5.10;;;;;;;18.23;48.49;100206.31;147542;1147;104569;-72
2021/04/19 12:21:03;;;;;;;6.10;5.30;;;;;;;18.24;47.21;100226.87;147450;1147;104560;-71
2021/04/19 12:24:08;;;;;;;6.25;5.30;;;;;;;18.17;48.17;100212.54;147438;1147;104480;-72
2021/04/19 12:27:11;;;;;;;5.90;5.23;;;;;;;18.00;48.19;100207.50;147623;1147;104459;-71
2021/04/19 12:30:16;;;;;;;5.85;4.50;;;;;;;17.89;47.94;100202.67;147746;1147;104470;-72
2021/04/19 12:33:19;;;;;;;6.30;5.12;;;;;;;17.89;46.68;100196.45;147478;1147;104538;-72
2021/04/19 12:36:23;;;;;;;8.53;5.78;;;;;;;17.87;47.45;100199.34;147571;1147;104584;-71
2021/04/19 12:39:26;;;;;;;7.35;5.47;;;;;;;17.84;46.51;100195.20;147572;1147;104895;-72
2021/04/19 12:42:30;;;;;;;8.28;5.30;;;;;;;17.72;46.81;100190.54;147502;1147;104550;-72
2021/04/19 12:45:34;;;;;;;9.55;5.92;;;;;;;17.63;46.27;100193.42;147729;1147;104550;-72
2021/04/19 12:48:37;;;;;;;8.63;5.28;;;;;;;17.50;46.43;100190.66;147694;1147;104679;-73
2021/04/19 12:51:40;;;;;;;5.97;4.55;;;;;;;17.47;46.43;100185.65;147789;1147;104852;-72
2021/04/19 12:54:43;;;;;;;7.65;5.20;;;;;;;17.50;46.05;100182.56;147728;1147;104448;-71
2021/04/19 12:57:47;;;;;;;6.15;5.00;;;;;;;17.45;45.27;100174.23;147794;1146;104544;-72
2021/04/19 13:00:50;;;;;;;6.00;4.63;;;;;;;17.34;44.38;100185.58;147783;1147;104560;-72
2021/04/19 13:03:53;;;;;;;8.03;5.30;;;;;;;17.22;45.07;100178.04;147733;1147;104591;-72
2021/04/19 13:06:56;;;;;;;7.00;4.83;;;;;;;17.13;45.18;100179.26;147764;1148;104457;-74
2021/04/19 13:09:59;;;;;;;7.50;5.10;;;;;;;17.18;44.93;100168.69;147784;1147;104633;-72
2021/04/19 13:13:02;;;;;;;7.10;5.13;;;;;;;17.25;44.54;100168.74;147712;1147;104447;-72
2021/04/19 13:16:07;;;;;;;7.40;5.57;;;;;;;17.17;43.69;100177.83;147692;1147;104540;-72
2021/04/19 13:19:10;;;;;;;7.12;5.28;;;;;;;17.03;45.33;100176.06;147407;1147;104525;-72
2021/04/19 13:22:13;;;;;;;8.40;5.40;;;;;;;16.85;43.35;100172.00;147236;1146;104546;-71
2021/04/19 13:25:17;;;;;;;7.47;5.30;;;;;;;16.84;44.83;100172.19;147473;1147;104522;-70
2021/04/19 13:28:20;;;;;;;9.05;5.75;;;;;;;16.86;43.25;100170.16;147617;1147;104479;-71
2021/04/19 13:31:24;;;;;;;7.27;5.37;;;;;;;16.94;44.55;100166.48;147625;1148;104569;-72
2021/04/19 13:34:27;;;;;;;7.87;5.08;;;;;;;17.03;44.62;100163.44;147667;1147;104541;-72
2021/04/19 13:37:30;;;;;;;11.28;7.37;;;;;;;17.05;42.93;100157.82;147660;1148;104451;-72
2021/04/19 13:40:33;;;;;;;7.15;5.25;;;;;;;16.96;43.80;100159.03;147647;1147;104539;-71
2021/04/19 13:43:37;;;;;;;5.92;4.83;;;;;;;16.91;43.67;100161.48;147466;1147;104447;-71
2021/04/19 13:46:40;;;;;;;10.05;7.33;;;;;;;16.95;43.84;100170.83;147602;1147;104556;-72
2021/04/19 13:49:43;;;;;;;6.60;5.22;;;;;;;16.97;44.49;100158.81;147387;1148;104567;-71
2021/04/19 13:52:47;;;;;;;7.80;5.05;;;;;;;17.03;42.37;100155.35;147680;1147;104547;-71
2021/04/19 13:55:50;;;;;;;7.92;5.28;;;;;;;17.15;44.20;100152.93;147355;1147;104427;-72